sensor_id;sensor_type;location;lat;lon;timestamp;P1;durP1;ratioP1;P2;durP2;ratioP2
74373;SDS011;62809;51.090;-115.358;2022-08-19T00:01:56;5.00;;;2.90;;
74373;SDS011;62809;51.090;-115.358;2022-08-19T00:04:30;4.80;;;2.80;;
74373;SDS011;62809;51.090;-115.358;2022-08-19T00:07:04;4.10;;;2.80;;
74373;SDS011;62809;51.090;-115.358;2022-08-19T00:09:33;4.80;;;2.80;;
74373;SDS011;62809;51.090;-115.358;2022-08-19T00:12:00;4.00;;;2.60;;
74373;SDS011;62809;51.090;-115.358;2022-08-19T00:14:31;4.40;;;2.90;;
74373;SDS011;62809;51.090;-115.358;2022-08-19T00:17:00;4.30;;;3.00;;
74373;SDS011;62809;51.090;-115.358;2022-08-19T00:19:31;5.00;;;2.70;;
74373;SDS011;62809;51.090;-115.358;2022-08-19T00:22:01;4.50;;;3.00;;
74373;SDS011;62809;51.090;-115.358;2022-08-19T00:24:32;4.00;;;2.80;;
74373;SDS011;62809;51.090;-115.358;2022-08-19T00:27:01;5.00;;;2.90;;
74373;SDS011;62809;51.090;-115.358;2022-08-19T00:29:29;4.00;;;3.00;;
74373;SDS011;62809;51.090;-115.358;2022-08-19T00:32:00;4.20;;;2.70;;
74373;SDS011;62809;51.090;-115.358;2022-08-19T00:34:27;4.40;;;2.90;;
74373;SDS011;62809;51.090;-115.358;2022-08-19T00:36:57;5.20;;;2.80;;
74373;SDS011;62809;51.090;-115.358;2022-08-19T00:39:29;3.70;;;2.80;;
74373;SDS011;62809;51.090;-115.358;2022-08-19T00:41:59;4.90;;;3.10;;
74373;SDS011;62809;51.090;-115.358;2022-08-19T00:44:28;4.30;;;3.00;;
74373;SDS011;62809;51.090;-115.358;2022-08-19T00:46:58;4.90;;;3.00;;
74373;SDS011;62809;51.090;-115.358;2022-08-19T00:49:32;4.80;;;3.20;;
74373;SDS011;62809;51.090;-115.358;2022-08-19T00:52:09;4.30;;;2.80;;
74373;SDS011;62809;51.090;-115.358;2022-08-19T00:54:41;4.80;;;2.90;;
74373;SDS011;62809;51.090;-115.358;2022-08-19T00:57:17;4.50;;;2.90;;
74373;SDS011;62809;51.090;-115.358;2022-08-19T00:59:52;3.70;;;2.60;;
74373;SDS011;62809;51.090;-115.358;2022-08-19T01:02:23;4.20;;;2.90;;
74373;SDS011;62809;51.090;-115.358;2022-08-19T01:04:53;5.50;;;3.10;;
74373;SDS011;62809;51.090;-115.358;2022-08-19T01:07:23;5.30;;;3.00;;
74373;SDS011;62809;51.090;-115.358;2022-08-19T01:09:51;4.30;;;3.00;;
74373;SDS011;62809;51.090;-115.358;2022-08-19T01:12:20;4.50;;;3.10;;
74373;SDS011;62809;51.090;-115.358;2022-08-19T01:14:50;4.30;;;3.20;;
74373;SDS011;62809;51.090;-115.358;2022-08-19T01:17:22;4.70;;;3.00;;
74373;SDS011;62809;51.090;-115.358;2022-08-19T01:19:50;4.50;;;3.20;;
74373;SDS011;62809;51.090;-115.358;2022-08-19T01:22:27;5.10;;;3.40;;
74373;SDS011;62809;51.090;-115.358;2022-08-19T01:25:06;4.30;;;3.10;;
74373;SDS011;62809;51.090;-115.358;2022-08-19T01:27:48;5.00;;;3.00;;
74373;SDS011;62809;51.090;-115.358;2022-08-19T01:30:21;4.90;;;3.00;;
74373;SDS011;62809;51.090;-115.358;2022-08-19T01:32:55;4.90;;;3.20;;
74373;SDS011;62809;51.090;-115.358;2022-08-19T01:35:28;4.80;;;3.40;;
74373;SDS011;62809;51.090;-115.358;2022-08-19T01:38:04;4.30;;;3.00;;
74373;SDS011;62809;51.090;-115.358;2022-08-19T01:40:39;5.00;;;2.90;;
74373;SDS011;62809;51.090;-115.358;2022-08-19T01:43:12;4.00;;;2.80;;
74373;SDS011;62809;51.090;-115.358;2022-08-19T01:45:40;6.00;;;3.20;;
74373;SDS011;62809;51.090;-115.358;2022-08-19T01:48:08;5.50;;;3.00;;
74373;SDS011;62809;51.090;-115.358;2022-08-19T01:50:38;4.60;;;2.90;;
74373;SDS011;62809;51.090;-115.358;2022-08-19T01:53:09;4.30;;;2.90;;
74373;SDS011;62809;51.090;-115.358;2022-08-19T01:55:41;4.30;;;3.00;;
74373;SDS011;62809;51.090;-115.358;2022-08-19T01:58:25;5.10;;;3.10;;
74373;SDS011;62809;51.090;-115.358;2022-08-19T02:00:56;4.70;;;2.80;;
74373;SDS011;62809;51.090;-115.358;2022-08-19T02:03:24;4.80;;;3.50;;
74373;SDS011;62809;51.090;-115.358;2022-08-19T02:05:59;5.00;;;3.10;;
74373;SDS011;62809;51.090;-115.358;2022-08-19T02:08:30;4.50;;;3.10;;
74373;SDS011;62809;51.090;-115.358;2022-08-19T02:10:58;4.40;;;2.90;;
74373;SDS011;62809;51.090;-115.358;2022-08-19T02:13:28;4.30;;;3.00;;
74373;SDS011;62809;51.090;-115.358;2022-08-19T02:15:57;4.70;;;3.30;;
74373;SDS011;62809;51.090;-115.358;2022-08-19T02:18:26;4.90;;;3.00;;
74373;SDS011;62809;51.090;-115.358;2022-08-19T02:20:54;4.70;;;3.10;;
74373;SDS011;62809;51.090;-115.358;2022-08-19T02:23:21;5.10;;;3.20;;
74373;SDS011;62809;51.090;-115.358;2022-08-19T02:25:48;4.70;;;3.00;;
74373;SDS011;62809;51.090;-115.358;2022-08-19T02:28:18;4.90;;;3.30;;
74373;SDS011;62809;51.090;-115.358;2022-08-19T02:30:47;4.60;;;3.20;;
74373;SDS011;62809;51.090;-115.358;2022-08-19T02:33:15;5.20;;;3.40;;
74373;SDS011;62809;51.090;-115.358;2022-08-19T02:35:45;4.60;;;3.30;;
74373;SDS011;62809;51.090;-115.358;2022-08-19T02:38:13;4.90;;;2.90;;
74373;SDS011;62809;51.090;-115.358;2022-08-19T02:41:06;4.30;;;3.10;;
74373;SDS011;62809;51.090;-115.358;2022-08-19T02:43:41;4.70;;;3.10;;
74373;SDS011;62809;51.090;-115.358;2022-08-19T02:46:23;4.30;;;3.00;;
74373;SDS011;62809;51.090;-115.358;2022-08-19T02:49:02;5.00;;;3.40;;
74373;SDS011;62809;51.090;-115.358;2022-08-19T02:51:40;5.20;;;3.20;;
74373;SDS011;62809;51.090;-115.358;2022-08-19T02:54:13;4.90;;;3.00;;
74373;SDS011;62809;51.090;-115.358;2022-08-19T02:56:43;5.00;;;3.00;;
74373;SDS011;62809;51.090;-115.358;2022-08-19T02:59:12;3.90;;;2.90;;
74373;SDS011;62809;51.090;-115.358;2022-08-19T03:01:41;5.00;;;3.10;;
74373;SDS011;62809;51.090;-115.358;2022-08-19T03:04:11;4.70;;;3.10;;
74373;SDS011;62809;51.090;-115.358;2022-08-19T03:06:46;5.70;;;3.40;;
74373;SDS011;62809;51.090;-115.358;2022-08-19T03:09:18;4.80;;;3.20;;
74373;SDS011;62809;51.090;-115.358;2022-08-19T03:11:45;4.80;;;3.00;;
74373;SDS011;62809;51.090;-115.358;2022-08-19T03:14:13;5.00;;;3.20;;
74373;SDS011;62809;51.090;-115.358;2022-08-19T03:16:58;4.70;;;3.10;;
74373;SDS011;62809;51.090;-115.358;2022-08-19T03:19:25;4.70;;;3.40;;
74373;SDS011;62809;51.090;-115.358;2022-08-19T03:21:53;5.60;;;3.40;;
74373;SDS011;62809;51.090;-115.358;2022-08-19T03:24:21;4.50;;;3.00;;
74373;SDS011;62809;51.090;-115.358;2022-08-19T03:26:52;4.60;;;3.30;;
74373;SDS011;62809;51.090;-115.358;2022-08-19T03:29:26;4.90;;;3.30;;
74373;SDS011;62809;51.090;-115.358;2022-08-19T03:31:54;4.90;;;3.10;;
74373;SDS011;62809;51.090;-115.358;2022-08-19T03:34:24;5.10;;;3.10;;
74373;SDS011;62809;51.090;-115.358;2022-08-19T03:36:56;4.60;;;3.10;;
74373;SDS011;62809;51.090;-115.358;2022-08-19T03:39:25;5.20;;;3.50;;
74373;SDS011;62809;51.090;-115.358;2022-08-19T03:41:54;4.30;;;3.10;;
74373;SDS011;62809;51.090;-115.358;2022-08-19T03:44:29;5.70;;;3.60;;
74373;SDS011;62809;51.090;-115.358;2022-08-19T03:47:00;4.70;;;3.20;;
74373;SDS011;62809;51.090;-115.358;2022-08-19T03:49:28;5.10;;;3.70;;
74373;SDS011;62809;51.090;-115.358;2022-08-19T03:51:59;4.90;;;3.30;;
74373;SDS011;62809;51.090;-115.358;2022-08-19T03:54:27;5.20;;;3.50;;
74373;SDS011;62809;51.090;-115.358;2022-08-19T03:56:58;5.30;;;3.70;;
74373;SDS011;62809;51.090;-115.358;2022-08-19T03:59:33;5.80;;;3.40;;
74373;SDS011;62809;51.090;-115.358;2022-08-19T04:02:06;5.90;;;3.40;;
74373;SDS011;62809;51.090;-115.358;2022-08-19T04:04:38;5.50;;;3.40;;
74373;SDS011;62809;51.090;-115.358;2022-08-19T04:07:10;5.30;;;3.30;;
74373;SDS011;62809;51.090;-115.358;2022-08-19T04:09:43;4.40;;;3.20;;
74373;SDS011;62809;51.090;-115.358;2022-08-19T04:12:11;4.50;;;3.30;;
74373;SDS011;62809;51.090;-115.358;2022-08-19T04:14:41;4.90;;;3.40;;
74373;SDS011;62809;51.090;-115.358;2022-08-19T04:17:08;5.50;;;3.70;;
74373;SDS011;62809;51.090;-115.358;2022-08-19T04:19:37;5.10;;;3.20;;
74373;SDS011;62809;51.090;-115.358;2022-08-19T04:22:09;4.90;;;3.30;;
74373;SDS011;62809;51.090;-115.358;2022-08-19T04:24:43;5.10;;;3.30;;
74373;SDS011;62809;51.090;-115.358;2022-08-19T04:27:13;5.10;;;3.20;;
74373;SDS011;62809;51.090;-115.358;2022-08-19T04:29:42;6.10;;;3.50;;
74373;SDS011;62809;51.090;-115.358;2022-08-19T04:32:10;4.80;;;3.40;;
74373;SDS011;62809;51.090;-115.358;2022-08-19T04:34:41;5.00;;;3.60;;
74373;SDS011;62809;51.090;-115.358;2022-08-19T04:37:09;5.30;;;3.50;;
74373;SDS011;62809;51.090;-115.358;2022-08-19T04:39:38;4.60;;;3.30;;
74373;SDS011;62809;51.090;-115.358;2022-08-19T04:42:24;4.80;;;3.40;;
74373;SDS011;62809;51.090;-115.358;2022-08-19T04:45:13;5.20;;;3.50;;
74373;SDS011;62809;51.090;-115.358;2022-08-19T04:47:42;4.80;;;3.40;;
74373;SDS011;62809;51.090;-115.358;2022-08-19T04:50:10;5.70;;;3.50;;
74373;SDS011;62809;51.090;-115.358;2022-08-19T04:52:40;4.90;;;3.30;;
74373;SDS011;62809;51.090;-115.358;2022-08-19T04:55:10;5.10;;;3.40;;
74373;SDS011;62809;51.090;-115.358;2022-08-19T04:57:40;5.20;;;3.30;;
74373;SDS011;62809;51.090;-115.358;2022-08-19T05:00:09;4.60;;;3.20;;
74373;SDS011;62809;51.090;-115.358;2022-08-19T05:02:38;5.10;;;3.30;;
74373;SDS011;62809;51.090;-115.358;2022-08-19T05:05:07;4.10;;;3.00;;
74373;SDS011;62809;51.090;-115.358;2022-08-19T05:07:35;4.90;;;3.20;;
74373;SDS011;62809;51.090;-115.358;2022-08-19T05:10:05;4.50;;;3.00;;
74373;SDS011;62809;51.090;-115.358;2022-08-19T05:12:33;4.90;;;3.30;;
74373;SDS011;62809;51.090;-115.358;2022-08-19T05:15:04;5.10;;;3.40;;
74373;SDS011;62809;51.090;-115.358;2022-08-19T05:17:34;4.90;;;3.00;;
74373;SDS011;62809;51.090;-115.358;2022-08-19T05:20:04;5.20;;;3.50;;
74373;SDS011;62809;51.090;-115.358;2022-08-19T05:22:51;4.90;;;3.10;;
74373;SDS011;62809;51.090;-115.358;2022-08-19T05:25:20;5.60;;;2.90;;
74373;SDS011;62809;51.090;-115.358;2022-08-19T05:27:51;4.90;;;3.20;;
74373;SDS011;62809;51.090;-115.358;2022-08-19T05:30:19;4.70;;;3.00;;
74373;SDS011;62809;51.090;-115.358;2022-08-19T05:32:46;4.70;;;3.30;;
74373;SDS011;62809;51.090;-115.358;2022-08-19T05:35:16;5.00;;;3.30;;
74373;SDS011;62809;51.090;-115.358;2022-08-19T05:37:44;5.30;;;3.00;;
74373;SDS011;62809;51.090;-115.358;2022-08-19T05:40:13;4.70;;;3.20;;
74373;SDS011;62809;51.090;-115.358;2022-08-19T05:42:41;4.40;;;2.90;;
74373;SDS011;62809;51.090;-115.358;2022-08-19T05:45:09;3.70;;;2.70;;
74373;SDS011;62809;51.090;-115.358;2022-08-19T05:47:39;4.70;;;2.90;;
74373;SDS011;62809;51.090;-115.358;2022-08-19T05:50:06;5.40;;;3.30;;
74373;SDS011;62809;51.090;-115.358;2022-08-19T05:52:37;4.50;;;3.30;;
74373;SDS011;62809;51.090;-115.358;2022-08-19T05:55:05;4.70;;;3.00;;
74373;SDS011;62809;51.090;-115.358;2022-08-19T05:57:33;5.60;;;3.70;;
74373;SDS011;62809;51.090;-115.358;2022-08-19T06:00:00;4.30;;;2.90;;
74373;SDS011;62809;51.090;-115.358;2022-08-19T06:02:30;5.20;;;3.40;;
74373;SDS011;62809;51.090;-115.358;2022-08-19T06:04:57;4.20;;;3.20;;
74373;SDS011;62809;51.090;-115.358;2022-08-19T06:07:25;5.80;;;3.30;;
74373;SDS011;62809;51.090;-115.358;2022-08-19T06:09:52;4.60;;;3.10;;
74373;SDS011;62809;51.090;-115.358;2022-08-19T06:12:20;5.00;;;3.40;;
74373;SDS011;62809;51.090;-115.358;2022-08-19T06:14:50;3.90;;;2.90;;
74373;SDS011;62809;51.090;-115.358;2022-08-19T06:17:18;4.80;;;3.10;;
74373;SDS011;62809;51.090;-115.358;2022-08-19T06:19:50;4.60;;;3.40;;
74373;SDS011;62809;51.090;-115.358;2022-08-19T06:22:18;4.20;;;3.10;;
74373;SDS011;62809;51.090;-115.358;2022-08-19T06:24:45;4.50;;;3.20;;
74373;SDS011;62809;51.090;-115.358;2022-08-19T06:27:12;4.50;;;3.10;;
74373;SDS011;62809;51.090;-115.358;2022-08-19T06:29:42;5.10;;;3.20;;
74373;SDS011;62809;51.090;-115.358;2022-08-19T06:32:14;5.10;;;3.40;;
74373;SDS011;62809;51.090;-115.358;2022-08-19T06:34:43;5.30;;;3.30;;
74373;SDS011;62809;51.090;-115.358;2022-08-19T06:37:12;5.00;;;3.30;;
74373;SDS011;62809;51.090;-115.358;2022-08-19T06:39:41;5.30;;;3.50;;
74373;SDS011;62809;51.090;-115.358;2022-08-19T06:42:12;6.10;;;3.70;;
74373;SDS011;62809;51.090;-115.358;2022-08-19T06:44:45;4.90;;;3.20;;
74373;SDS011;62809;51.090;-115.358;2022-08-19T06:47:20;4.60;;;3.30;;
74373;SDS011;62809;51.090;-115.358;2022-08-19T06:49:48;4.60;;;3.20;;
74373;SDS011;62809;51.090;-115.358;2022-08-19T06:52:15;4.60;;;3.30;;
74373;SDS011;62809;51.090;-115.358;2022-08-19T06:54:44;4.60;;;3.20;;
74373;SDS011;62809;51.090;-115.358;2022-08-19T06:57:11;4.50;;;3.10;;
74373;SDS011;62809;51.090;-115.358;2022-08-19T06:59:41;4.00;;;3.20;;
74373;SDS011;62809;51.090;-115.358;2022-08-19T07:02:08;4.80;;;3.10;;
74373;SDS011;62809;51.090;-115.358;2022-08-19T07:04:38;4.60;;;3.30;;
74373;SDS011;62809;51.090;-115.358;2022-08-19T07:07:10;5.10;;;3.40;;
74373;SDS011;62809;51.090;-115.358;2022-08-19T07:09:43;4.30;;;3.10;;
74373;SDS011;62809;51.090;-115.358;2022-08-19T07:12:12;5.40;;;3.20;;
74373;SDS011;62809;51.090;-115.358;2022-08-19T07:14:43;4.40;;;3.30;;
74373;SDS011;62809;51.090;-115.358;2022-08-19T07:17:16;5.10;;;3.20;;
74373;SDS011;62809;51.090;-115.358;2022-08-19T07:19:44;5.10;;;3.40;;
74373;SDS011;62809;51.090;-115.358;2022-08-19T07:22:14;5.30;;;3.50;;
74373;SDS011;62809;51.090;-115.358;2022-08-19T07:24:43;5.10;;;3.20;;
74373;SDS011;62809;51.090;-115.358;2022-08-19T07:27:13;3.90;;;3.00;;
74373;SDS011;62809;51.090;-115.358;2022-08-19T07:29:40;4.50;;;3.20;;
74373;SDS011;62809;51.090;-115.358;2022-08-19T07:32:08;4.60;;;3.30;;
74373;SDS011;62809;51.090;-115.358;2022-08-19T07:34:37;4.60;;;3.50;;
74373;SDS011;62809;51.090;-115.358;2022-08-19T07:37:06;4.60;;;3.50;;
74373;SDS011;62809;51.090;-115.358;2022-08-19T07:39:35;4.80;;;3.20;;
74373;SDS011;62809;51.090;-115.358;2022-08-19T07:42:08;4.80;;;3.30;;
74373;SDS011;62809;51.090;-115.358;2022-08-19T07:44:37;4.90;;;3.60;;
74373;SDS011;62809;51.090;-115.358;2022-08-19T07:47:06;5.30;;;3.80;;
74373;SDS011;62809;51.090;-115.358;2022-08-19T07:49:34;6.00;;;3.70;;
74373;SDS011;62809;51.090;-115.358;2022-08-19T07:52:05;5.10;;;3.50;;
74373;SDS011;62809;51.090;-115.358;2022-08-19T07:54:37;5.50;;;3.50;;
74373;SDS011;62809;51.090;-115.358;2022-08-19T07:57:05;4.40;;;3.20;;
74373;SDS011;62809;51.090;-115.358;2022-08-19T07:59:35;4.90;;;3.50;;
74373;SDS011;62809;51.090;-115.358;2022-08-19T08:02:04;4.60;;;3.40;;
74373;SDS011;62809;51.090;-115.358;2022-08-19T08:04:32;5.10;;;3.10;;
74373;SDS011;62809;51.090;-115.358;2022-08-19T08:07:19;5.20;;;3.50;;
74373;SDS011;62809;51.090;-115.358;2022-08-19T08:10:08;4.80;;;3.50;;
74373;SDS011;62809;51.090;-115.358;2022-08-19T08:12:39;4.90;;;3.30;;
74373;SDS011;62809;51.090;-115.358;2022-08-19T08:15:14;5.30;;;3.30;;
74373;SDS011;62809;51.090;-115.358;2022-08-19T08:17:43;5.30;;;3.40;;
74373;SDS011;62809;51.090;-115.358;2022-08-19T08:20:15;4.80;;;3.60;;
74373;SDS011;62809;51.090;-115.358;2022-08-19T08:22:46;4.40;;;3.20;;
74373;SDS011;62809;51.090;-115.358;2022-08-19T08:25:35;5.10;;;3.60;;
74373;SDS011;62809;51.090;-115.358;2022-08-19T08:28:04;4.50;;;3.20;;
74373;SDS011;62809;51.090;-115.358;2022-08-19T08:30:33;5.10;;;3.50;;
74373;SDS011;62809;51.090;-115.358;2022-08-19T08:33:02;5.80;;;3.60;;
74373;SDS011;62809;51.090;-115.358;2022-08-19T08:35:31;5.10;;;3.70;;
74373;SDS011;62809;51.090;-115.358;2022-08-19T08:37:59;5.80;;;3.60;;
74373;SDS011;62809;51.090;-115.358;2022-08-19T08:40:43;5.30;;;3.50;;
74373;SDS011;62809;51.090;-115.358;2022-08-19T08:43:23;5.40;;;3.60;;
74373;SDS011;62809;51.090;-115.358;2022-08-19T08:46:10;6.60;;;3.80;;
74373;SDS011;62809;51.090;-115.358;2022-08-19T08:48:54;5.10;;;3.60;;
74373;SDS011;62809;51.090;-115.358;2022-08-19T08:51:33;4.80;;;3.50;;
74373;SDS011;62809;51.090;-115.358;2022-08-19T08:54:10;5.30;;;3.50;;
74373;SDS011;62809;51.090;-115.358;2022-08-19T08:56:41;6.20;;;3.90;;
74373;SDS011;62809;51.090;-115.358;2022-08-19T09:02:00;5.10;;;3.60;;
74373;SDS011;62809;51.090;-115.358;2022-08-19T09:04:28;5.70;;;3.30;;
74373;SDS011;62809;51.090;-115.358;2022-08-19T09:09:51;5.20;;;3.40;;
74373;SDS011;62809;51.090;-115.358;2022-08-19T09:15:21;4.80;;;3.30;;
74373;SDS011;62809;51.090;-115.358;2022-08-19T09:18:00;5.00;;;3.30;;
74373;SDS011;62809;51.090;-115.358;2022-08-19T09:20:33;5.70;;;3.20;;
74373;SDS011;62809;51.090;-115.358;2022-08-19T09:23:02;5.20;;;3.60;;
74373;SDS011;62809;51.090;-115.358;2022-08-19T09:25:31;5.70;;;3.40;;
74373;SDS011;62809;51.090;-115.358;2022-08-19T09:28:00;5.70;;;3.60;;
74373;SDS011;62809;51.090;-115.358;2022-08-19T09:30:32;5.40;;;3.50;;
74373;SDS011;62809;51.090;-115.358;2022-08-19T09:33:05;4.50;;;3.30;;
74373;SDS011;62809;51.090;-115.358;2022-08-19T09:35:34;5.80;;;3.30;;
74373;SDS011;62809;51.090;-115.358;2022-08-19T09:38:04;5.60;;;3.50;;
74373;SDS011;62809;51.090;-115.358;2022-08-19T09:40:31;5.50;;;3.60;;
74373;SDS011;62809;51.090;-115.358;2022-08-19T09:42:59;4.50;;;3.30;;
74373;SDS011;62809;51.090;-115.358;2022-08-19T09:45:29;4.50;;;3.30;;
74373;SDS011;62809;51.090;-115.358;2022-08-19T09:47:57;4.20;;;3.30;;
74373;SDS011;62809;51.090;-115.358;2022-08-19T09:50:25;5.20;;;3.40;;
74373;SDS011;62809;51.090;-115.358;2022-08-19T09:52:54;5.20;;;3.60;;
74373;SDS011;62809;51.090;-115.358;2022-08-19T09:55:22;5.50;;;3.60;;
74373;SDS011;62809;51.090;-115.358;2022-08-19T09:57:53;5.50;;;3.50;;
74373;SDS011;62809;51.090;-115.358;2022-08-19T10:00:22;6.20;;;3.50;;
74373;SDS011;62809;51.090;-115.358;2022-08-19T10:02:49;6.90;;;3.60;;
74373;SDS011;62809;51.090;-115.358;2022-08-19T10:05:18;4.80;;;3.50;;
74373;SDS011;62809;51.090;-115.358;2022-08-19T10:08:05;6.50;;;3.70;;
74373;SDS011;62809;51.090;-115.358;2022-08-19T10:10:35;5.10;;;3.30;;
74373;SDS011;62809;51.090;-115.358;2022-08-19T10:13:02;5.70;;;3.30;;
74373;SDS011;62809;51.090;-115.358;2022-08-19T10:15:30;5.10;;;3.40;;
74373;SDS011;62809;51.090;-115.358;2022-08-19T10:17:57;4.80;;;3.60;;
74373;SDS011;62809;51.090;-115.358;2022-08-19T10:20:27;5.00;;;3.60;;
74373;SDS011;62809;51.090;-115.358;2022-08-19T10:22:56;5.40;;;3.30;;
74373;SDS011;62809;51.090;-115.358;2022-08-19T10:25:25;5.00;;;3.70;;
74373;SDS011;62809;51.090;-115.358;2022-08-19T10:27:55;5.00;;;3.60;;
74373;SDS011;62809;51.090;-115.358;2022-08-19T10:30:22;4.80;;;3.60;;
74373;SDS011;62809;51.090;-115.358;2022-08-19T10:32:53;5.70;;;3.60;;
74373;SDS011;62809;51.090;-115.358;2022-08-19T10:35:20;4.90;;;3.50;;
74373;SDS011;62809;51.090;-115.358;2022-08-19T10:37:48;5.80;;;3.60;;
74373;SDS011;62809;51.090;-115.358;2022-08-19T10:40:16;5.20;;;3.40;;
74373;SDS011;62809;51.090;-115.358;2022-08-19T10:42:46;4.70;;;3.30;;
74373;SDS011;62809;51.090;-115.358;2022-08-19T10:45:13;5.50;;;3.50;;
74373;SDS011;62809;51.090;-115.358;2022-08-19T10:47:42;6.30;;;3.50;;
74373;SDS011;62809;51.090;-115.358;2022-08-19T10:50:10;5.00;;;3.50;;
74373;SDS011;62809;51.090;-115.358;2022-08-19T10:52:56;4.60;;;3.20;;
74373;SDS011;62809;51.090;-115.358;2022-08-19T10:55:26;4.70;;;3.30;;
74373;SDS011;62809;51.090;-115.358;2022-08-19T10:58:15;5.60;;;3.50;;
74373;SDS011;62809;51.090;-115.358;2022-08-19T11:00:57;5.00;;;3.40;;
74373;SDS011;62809;51.090;-115.358;2022-08-19T11:03:29;5.30;;;3.60;;
74373;SDS011;62809;51.090;-115.358;2022-08-19T11:06:06;5.40;;;3.30;;
74373;SDS011;62809;51.090;-115.358;2022-08-19T11:08:36;5.70;;;3.50;;
74373;SDS011;62809;51.090;-115.358;2022-08-19T11:11:05;5.80;;;3.50;;
74373;SDS011;62809;51.090;-115.358;2022-08-19T11:13:36;5.40;;;3.90;;
74373;SDS011;62809;51.090;-115.358;2022-08-19T11:16:10;5.70;;;3.50;;
74373;SDS011;62809;51.090;-115.358;2022-08-19T11:18:47;6.30;;;3.60;;
74373;SDS011;62809;51.090;-115.358;2022-08-19T11:21:21;5.00;;;3.60;;
74373;SDS011;62809;51.090;-115.358;2022-08-19T11:23:52;5.10;;;3.40;;
74373;SDS011;62809;51.090;-115.358;2022-08-19T11:26:23;5.20;;;3.50;;
74373;SDS011;62809;51.090;-115.358;2022-08-19T11:28:51;4.70;;;3.30;;
74373;SDS011;62809;51.090;-115.358;2022-08-19T11:31:24;4.90;;;3.60;;
74373;SDS011;62809;51.090;-115.358;2022-08-19T11:33:55;5.20;;;3.20;;
74373;SDS011;62809;51.090;-115.358;2022-08-19T11:36:29;4.70;;;3.30;;
74373;SDS011;62809;51.090;-115.358;2022-08-19T11:39:00;4.90;;;3.40;;
74373;SDS011;62809;51.090;-115.358;2022-08-19T11:41:27;4.50;;;3.10;;
74373;SDS011;62809;51.090;-115.358;2022-08-19T11:43:54;5.30;;;3.60;;
74373;SDS011;62809;51.090;-115.358;2022-08-19T11:46:24;6.80;;;3.60;;
74373;SDS011;62809;51.090;-115.358;2022-08-19T11:48:52;4.70;;;3.40;;
74373;SDS011;62809;51.090;-115.358;2022-08-19T11:51:22;5.20;;;3.40;;
74373;SDS011;62809;51.090;-115.358;2022-08-19T11:53:54;5.90;;;3.40;;
74373;SDS011;62809;51.090;-115.358;2022-08-19T11:56:23;5.70;;;3.60;;
74373;SDS011;62809;51.090;-115.358;2022-08-19T11:58:52;5.40;;;3.40;;
74373;SDS011;62809;51.090;-115.358;2022-08-19T12:01:22;5.40;;;3.60;;
74373;SDS011;62809;51.090;-115.358;2022-08-19T12:03:53;5.20;;;3.70;;
74373;SDS011;62809;51.090;-115.358;2022-08-19T12:06:25;5.50;;;3.50;;
74373;SDS011;62809;51.090;-115.358;2022-08-19T12:08:56;4.90;;;3.30;;
74373;SDS011;62809;51.090;-115.358;2022-08-19T12:11:25;4.90;;;3.40;;
74373;SDS011;62809;51.090;-115.358;2022-08-19T12:13:58;5.00;;;3.70;;
74373;SDS011;62809;51.090;-115.358;2022-08-19T12:16:28;5.60;;;3.70;;
74373;SDS011;62809;51.090;-115.358;2022-08-19T12:19:00;5.10;;;3.60;;
74373;SDS011;62809;51.090;-115.358;2022-08-19T12:21:32;5.40;;;3.80;;
74373;SDS011;62809;51.090;-115.358;2022-08-19T12:24:05;5.50;;;3.40;;
74373;SDS011;62809;51.090;-115.358;2022-08-19T12:26:34;4.80;;;3.40;;
74373;SDS011;62809;51.090;-115.358;2022-08-19T12:29:05;5.60;;;3.40;;
74373;SDS011;62809;51.090;-115.358;2022-08-19T12:31:35;5.80;;;3.70;;
74373;SDS011;62809;51.090;-115.358;2022-08-19T12:34:03;4.90;;;3.20;;
74373;SDS011;62809;51.090;-115.358;2022-08-19T12:36:30;4.60;;;3.40;;
74373;SDS011;62809;51.090;-115.358;2022-08-19T12:39:00;5.30;;;3.50;;
74373;SDS011;62809;51.090;-115.358;2022-08-19T12:41:28;5.50;;;3.60;;
74373;SDS011;62809;51.090;-115.358;2022-08-19T12:43:55;5.20;;;3.60;;
74373;SDS011;62809;51.090;-115.358;2022-08-19T12:46:22;5.90;;;3.50;;
74373;SDS011;62809;51.090;-115.358;2022-08-19T12:48:49;5.70;;;3.40;;
74373;SDS011;62809;51.090;-115.358;2022-08-19T12:51:18;5.20;;;3.40;;
74373;SDS011;62809;51.090;-115.358;2022-08-19T12:53:48;5.80;;;3.60;;
74373;SDS011;62809;51.090;-115.358;2022-08-19T12:56:16;5.90;;;3.80;;
74373;SDS011;62809;51.090;-115.358;2022-08-19T12:58:46;5.70;;;3.70;;
74373;SDS011;62809;51.090;-115.358;2022-08-19T13:01:14;5.80;;;3.90;;
74373;SDS011;62809;51.090;-115.358;2022-08-19T13:03:46;6.80;;;3.80;;
74373;SDS011;62809;51.090;-115.358;2022-08-19T13:06:14;5.80;;;4.00;;
74373;SDS011;62809;51.090;-115.358;2022-08-19T13:08:41;6.70;;;3.80;;
74373;SDS011;62809;51.090;-115.358;2022-08-19T13:11:15;6.40;;;3.90;;
74373;SDS011;62809;51.090;-115.358;2022-08-19T13:13:47;5.70;;;3.60;;
74373;SDS011;62809;51.090;-115.358;2022-08-19T13:16:18;5.90;;;3.50;;
74373;SDS011;62809;51.090;-115.358;2022-08-19T13:18:47;5.20;;;3.70;;
74373;SDS011;62809;51.090;-115.358;2022-08-19T13:21:15;6.90;;;3.70;;
74373;SDS011;62809;51.090;-115.358;2022-08-19T13:23:45;5.30;;;3.70;;
74373;SDS011;62809;51.090;-115.358;2022-08-19T13:26:14;6.20;;;3.80;;
74373;SDS011;62809;51.090;-115.358;2022-08-19T13:28:43;5.60;;;3.80;;
74373;SDS011;62809;51.090;-115.358;2022-08-19T13:31:31;6.00;;;3.90;;
74373;SDS011;62809;51.090;-115.358;2022-08-19T13:34:25;5.90;;;3.50;;
74373;SDS011;62809;51.090;-115.358;2022-08-19T13:36:56;5.60;;;3.80;;
74373;SDS011;62809;51.090;-115.358;2022-08-19T13:39:25;5.80;;;4.00;;
74373;SDS011;62809;51.090;-115.358;2022-08-19T13:41:56;5.60;;;3.70;;
74373;SDS011;62809;51.090;-115.358;2022-08-19T13:44:27;5.60;;;3.90;;
74373;SDS011;62809;51.090;-115.358;2022-08-19T13:47:03;6.40;;;4.10;;
74373;SDS011;62809;51.090;-115.358;2022-08-19T13:49:38;5.70;;;3.90;;
74373;SDS011;62809;51.090;-115.358;2022-08-19T13:52:06;5.00;;;3.50;;
74373;SDS011;62809;51.090;-115.358;2022-08-19T13:54:34;5.30;;;3.30;;
74373;SDS011;62809;51.090;-115.358;2022-08-19T13:57:02;5.20;;;3.60;;
74373;SDS011;62809;51.090;-115.358;2022-08-19T13:59:32;6.10;;;4.00;;
74373;SDS011;62809;51.090;-115.358;2022-08-19T14:02:05;5.70;;;3.80;;
74373;SDS011;62809;51.090;-115.358;2022-08-19T14:04:35;6.90;;;3.70;;
74373;SDS011;62809;51.090;-115.358;2022-08-19T14:07:06;5.20;;;3.80;;
74373;SDS011;62809;51.090;-115.358;2022-08-19T14:09:34;5.60;;;3.70;;
74373;SDS011;62809;51.090;-115.358;2022-08-19T14:12:01;6.60;;;3.80;;
74373;SDS011;62809;51.090;-115.358;2022-08-19T14:14:30;6.00;;;3.60;;
74373;SDS011;62809;51.090;-115.358;2022-08-19T14:16:58;6.00;;;3.90;;
74373;SDS011;62809;51.090;-115.358;2022-08-19T14:19:25;6.70;;;3.80;;
74373;SDS011;62809;51.090;-115.358;2022-08-19T14:21:57;5.80;;;3.80;;
74373;SDS011;62809;51.090;-115.358;2022-08-19T14:24:25;7.20;;;3.50;;
74373;SDS011;62809;51.090;-115.358;2022-08-19T14:26:53;7.70;;;3.90;;
74373;SDS011;62809;51.090;-115.358;2022-08-19T14:29:23;6.10;;;4.00;;
74373;SDS011;62809;51.090;-115.358;2022-08-19T14:31:53;5.80;;;4.00;;
74373;SDS011;62809;51.090;-115.358;2022-08-19T14:34:22;5.20;;;3.60;;
74373;SDS011;62809;51.090;-115.358;2022-08-19T14:36:52;6.30;;;3.70;;
74373;SDS011;62809;51.090;-115.358;2022-08-19T14:39:19;4.70;;;3.40;;